METAR Data

Data at: 0941 UTC 17 Nov 2018

METAR for:KSDL (Scottsdale Muni, AZ, US)
Text:KSDL 170853Z AUTO 00000KT 10SM CLR 09/M01 A3001 RMK AO2 SLP148 T00941011 51004
Temperature: 9.4°C ( 49°F)
Dewpoint: -1.1°C ( 30°F) [RH = 48%]
Pressure (altimeter):30.01 inches Hg (1016.3 mb) [Sea level pressure: 1014.8 mb]
Winds:calm
Visibility:10 or more sm (16+ km)
Ceiling:at least 12,000 feet AGL
Clouds:sky clear below 12,000 feet AGL
QC Flag:automated observation with no human augmentation